Terminal Aerodrome Forecast
Issued by NWS

Home | Current Version | Previous Version | Text Only | Print | Product List | Glossary On
Versions: 1 2 3 4 5 6 7 8 9 10 11 12 13 14 15 16 17 18 19 20 21
000
FTUS52 KTSA 241700
TAFXNA
TAF
KXNA 241740Z 2418/2518 20010KT P6SM -RA SCT025 OVC050
      TEMPO 2418/2422 5SM -RA OVC025
     FM242200 20010KT P6SM -RA SCT020 OVC050
      TEMPO 2422/2424 4SM -TSRA BR OVC015CB
     FM250000 17007KT P6SM -RA OVC025
      TEMPO 2500/2504 3SM -RA BR BKN008 OVC030=

USA.gov is the U.S. government's official web portal to all federal, state and local government web resources and services.